Tyrone, Missouri
Current Conditions -  °F | °C
As of 5:53 AM on Thursday 27 Nov 2014 (Local Time) from KUNO Reporting Station
Overcast Overcast  
Wind Chill: 24°   Ceiling: 1400
Heat Index: 32°   Visibility: 8mi
Dew Point: 25°   Wind: 9mph
Humidity: 75%   Direction: 350°N
Pressure: 30.41"   Gusts: 20mph
Location:  37.3091°N, 91.9516°W
Report Text: KUNO 271153Z AUTO 35008G17KT 8SM OVC014 00/M04 A3041 RMK AO2 SLP307 70008 T00001039 10011 21006 53022
Loading
Personal Weather Stations






























Interactive Weather Map New forecast layout! Learn more

10-Day Weather Forecast

Advertisements
Track Severe Weather on mobile